createdAt,value
2018-12-05T00:02:03.399Z,7.40
2018-12-05T00:04:44.599Z,9.93
2018-12-05T00:07:13.607Z,7.20
2018-12-05T00:09:54.798Z,7.07
2018-12-05T00:12:23.685Z,6.37
2018-12-05T00:15:05.427Z,6.67
2018-12-05T00:17:34.356Z,6.60
2018-12-05T00:20:15.519Z,6.00
2018-12-05T00:22:44.444Z,8.70
2018-12-05T00:25:25.631Z,7.13
2018-12-05T00:27:54.518Z,7.43
2018-12-05T00:30:35.710Z,6.60
2018-12-05T00:33:04.600Z,7.20
2018-12-05T00:35:45.793Z,6.93
2018-12-05T00:38:14.682Z,6.93
2018-12-05T00:40:55.982Z,7.47
2018-12-05T00:43:26.771Z,6.60
2018-12-05T00:46:07.962Z,6.20
2018-12-05T00:48:36.881Z,8.23
2018-12-05T00:51:18.116Z,8.23
2018-12-05T00:53:47.026Z,7.20
2018-12-05T00:56:28.223Z,6.33
2018-12-05T00:58:57.141Z,6.20
2018-12-05T01:01:38.449Z,6.87
2018-12-05T01:04:07.361Z,7.07
2018-12-05T01:06:48.549Z,7.10
2018-12-05T01:09:17.519Z,8.17
2018-12-05T01:11:58.799Z,7.67
2018-12-05T01:14:27.798Z,7.13
2018-12-05T01:17:09.002Z,8.43
2018-12-05T01:19:38.035Z,9.37
2018-12-05T01:22:19.379Z,9.07
2018-12-05T01:24:50.169Z,7.60
2018-12-05T01:27:31.406Z,9.00
2018-12-05T01:30:12.721Z,6.80
2018-12-05T01:32:41.830Z,7.13
2018-12-05T01:35:23.348Z,6.47
2018-12-05T01:37:52.269Z,5.33
2018-12-05T01:40:33.466Z,7.40
2018-12-05T01:43:02.386Z,7.03
2018-12-05T01:45:43.542Z,7.97
2018-12-05T01:48:12.725Z,7.73
2018-12-05T01:50:53.906Z,6.20
2018-12-05T01:53:22.809Z,6.87
2018-12-05T01:56:04.150Z,7.80
2018-12-05T01:58:33.066Z,7.90
2018-12-05T02:01:14.307Z,8.03
2018-12-05T02:03:43.227Z,7.63
2018-12-05T02:06:24.402Z,6.10
2018-12-05T02:08:53.639Z,8.20
2018-12-05T02:11:34.874Z,6.77
2018-12-05T02:14:04.715Z,6.57
2018-12-05T02:16:45.873Z,9.60
2018-12-05T02:19:14.903Z,11.50
2018-12-05T02:21:56.104Z,12.70
2018-12-05T02:24:25.143Z,11.97
2018-12-05T02:27:06.346Z,8.60
2018-12-05T02:29:40.777Z,7.70
2018-12-05T02:32:27.023Z,10.10
2018-12-05T02:34:56.171Z,11.20
2018-12-05T02:37:37.807Z,11.03
2018-12-05T02:40:07.267Z,10.80
2018-12-05T02:42:48.470Z,9.13
2018-12-05T02:45:19.286Z,10.47
2018-12-05T02:48:00.467Z,8.20
2018-12-05T02:50:29.396Z,8.07
2018-12-05T02:53:10.657Z,8.50
2018-12-05T02:55:39.570Z,8.10
2018-12-05T02:58:20.722Z,8.50
2018-12-05T03:00:51.556Z,7.70
2018-12-05T03:03:32.741Z,7.50
2018-12-05T03:06:01.785Z,9.08
2018-12-05T03:08:42.962Z,8.57
2018-12-05T03:11:11.908Z,6.13
2018-12-05T03:13:53.109Z,5.97
2018-12-05T03:16:22.031Z,8.13
2018-12-05T03:19:03.238Z,7.37
2018-12-05T03:21:32.629Z,6.57
2018-12-05T03:24:13.827Z,7.50
2018-12-05T03:26:42.751Z,8.13
2018-12-05T03:29:23.965Z,6.28
2018-12-05T03:31:52.913Z,11.47
2018-12-05T03:34:34.125Z,5.93
2018-12-05T03:37:03.052Z,6.00
2018-12-05T03:39:44.229Z,5.75
2018-12-05T03:42:13.709Z,6.50
2018-12-05T03:44:54.893Z,4.73
2018-12-05T03:47:25.846Z,6.70
2018-12-05T03:50:07.087Z,6.17
2018-12-05T03:52:36.002Z,6.05
2018-12-05T03:55:17.202Z,7.85
2018-12-05T03:57:46.239Z,5.85
2018-12-05T04:00:31.489Z,6.40
2018-12-05T04:03:00.418Z,6.37
2018-12-05T04:05:41.633Z,5.67
2018-12-05T04:08:10.559Z,6.35
2018-12-05T04:10:51.738Z,6.25
2018-12-05T04:13:20.629Z,5.22
2018-12-05T04:16:01.816Z,6.40
2018-12-05T04:18:30.770Z,7.62
2018-12-05T04:21:12.067Z,6.15
2018-12-05T04:23:41.194Z,5.42
2018-12-05T04:26:22.389Z,5.00
2018-12-05T04:28:51.603Z,7.50
2018-12-05T04:31:32.825Z,6.12
2018-12-05T04:34:01.753Z,5.20
2018-12-05T04:36:42.926Z,5.25
2018-12-05T04:39:11.940Z,5.58
2018-12-05T04:41:53.160Z,4.40
2018-12-05T04:44:22.077Z,6.20
2018-12-05T04:47:03.257Z,4.97
2018-12-05T04:49:33.083Z,6.70
2018-12-05T04:52:14.311Z,8.40
2018-12-05T04:54:43.231Z,5.05
2018-12-05T04:57:24.422Z,6.28
2018-12-05T04:59:53.320Z,4.28
2018-12-05T05:02:34.573Z,6.08
2018-12-05T05:05:04.423Z,5.72
2018-12-05T05:07:45.600Z,6.00
2018-12-05T05:10:15.914Z,4.75
2018-12-05T05:12:57.431Z,7.28
2018-12-05T05:15:26.326Z,6.87
2018-12-05T05:18:07.505Z,5.55
2018-12-05T05:20:37.242Z,4.67
2018-12-05T05:23:19.501Z,4.72
2018-12-05T05:25:48.434Z,5.30
2018-12-05T05:28:29.613Z,5.60
2018-12-05T05:30:58.720Z,5.15
2018-12-05T05:33:39.915Z,5.25
2018-12-05T05:36:09.250Z,5.12
2018-12-05T05:38:50.414Z,5.65
2018-12-05T05:41:21.219Z,5.50
2018-12-05T05:44:02.399Z,5.70
2018-12-05T05:46:31.522Z,7.62
2018-12-05T05:49:12.769Z,7.70
2018-12-05T05:51:41.665Z,8.48
2018-12-05T05:54:22.849Z,9.73
2018-12-05T05:56:51.949Z,9.78
2018-12-05T05:59:33.111Z,9.23
2018-12-05T06:02:02.041Z,10.05
2018-12-05T06:04:43.211Z,11.33
2018-12-05T06:07:12.110Z,9.50
2018-12-05T06:09:53.278Z,8.93
2018-12-05T06:12:23.021Z,11.48
2018-12-05T06:15:06.097Z,8.20
2018-12-05T06:17:35.788Z,8.08
2018-12-05T06:20:16.972Z,9.13
2018-12-05T06:22:47.777Z,8.08
2018-12-05T06:25:28.950Z,9.15
2018-12-05T06:27:57.867Z,9.28
2018-12-05T06:30:39.050Z,7.80
2018-12-05T06:33:07.944Z,10.48
2018-12-05T06:35:49.137Z,7.97
2018-12-05T06:38:18.037Z,7.42
2018-12-05T06:40:59.229Z,10.65
2018-12-05T06:43:29.314Z,10.08
2018-12-05T06:46:10.866Z,11.88
2018-12-05T06:48:39.858Z,13.68
2018-12-05T06:51:21.078Z,10.53
2018-12-05T06:53:50.995Z,10.48
2018-12-05T06:56:32.153Z,9.75
2018-12-05T06:59:01.064Z,10.05
2018-12-05T07:01:42.557Z,8.38
2018-12-05T07:04:11.807Z,7.62
2018-12-05T07:06:52.962Z,9.90
2018-12-05T07:09:21.961Z,8.93
2018-12-05T07:12:03.214Z,14.50
2018-12-05T07:14:32.152Z,12.37
2018-12-05T07:17:13.332Z,13.55
2018-12-05T07:19:42.233Z,9.98
2018-12-05T07:22:23.442Z,11.30
2018-12-05T07:24:52.514Z,10.15
2018-12-05T07:27:33.673Z,9.58
2018-12-05T07:30:02.591Z,10.13
2018-12-05T07:32:43.765Z,9.93
2018-12-05T07:35:14.022Z,8.90
2018-12-05T07:37:55.189Z,9.88
2018-12-05T07:40:24.198Z,7.37
2018-12-05T07:43:05.465Z,10.45
2018-12-05T07:45:36.467Z,13.50
2018-12-05T07:48:17.633Z,11.57
2018-12-05T07:50:46.623Z,11.95
2018-12-05T07:53:27.783Z,12.18
2018-12-05T07:55:56.839Z,11.18
2018-12-05T07:58:37.998Z,8.80
2018-12-05T08:01:07.410Z,8.10
2018-12-05T08:03:48.618Z,7.62
2018-12-05T08:06:17.787Z,10.15
2018-12-05T08:08:58.966Z,9.68
2018-12-05T08:11:28.049Z,7.80
2018-12-05T08:14:09.214Z,16.45
2018-12-05T08:16:39.971Z,10.08
2018-12-05T08:19:21.145Z,9.13
2018-12-05T08:21:50.044Z,18.30
2018-12-05T08:24:31.322Z,10.48
2018-12-05T08:27:00.207Z,12.90
2018-12-05T08:29:41.363Z,17.48
2018-12-05T08:32:12.053Z,11.03
2018-12-05T08:34:53.218Z,11.70
2018-12-05T08:37:22.153Z,12.82
2018-12-05T08:40:04.037Z,16.42
2018-12-05T08:42:32.988Z,12.70
2018-12-05T08:45:14.314Z,17.45
2018-12-05T08:47:43.542Z,24.93
2018-12-05T08:50:25.109Z,12.87
2018-12-05T08:52:54.119Z,16.13
2018-12-05T08:55:35.275Z,15.97
2018-12-05T08:58:04.475Z,19.70
2018-12-05T09:00:45.677Z,13.73
2018-12-05T09:03:14.898Z,11.80
2018-12-05T09:05:56.106Z,13.43
2018-12-05T09:08:25.022Z,16.93
2018-12-05T09:10:53.960Z,10.87
2018-12-05T09:13:35.322Z,7.73
2018-12-05T09:16:04.302Z,11.93
2018-12-05T09:18:45.527Z,7.00
2018-12-05T09:21:14.498Z,10.17
2018-12-05T09:23:55.798Z,8.63
2018-12-05T09:26:24.698Z,17.43
2018-12-05T09:29:05.882Z,8.30
2018-12-05T09:31:36.677Z,7.30
2018-12-05T09:34:17.966Z,12.57
2018-12-05T09:36:46.950Z,6.43
2018-12-05T09:39:28.113Z,9.70
2018-12-05T09:41:57.327Z,9.85
2018-12-05T09:44:38.495Z,10.50
2018-12-05T09:47:07.382Z,12.67
2018-12-05T09:49:48.531Z,4.20
2018-12-05T09:52:19.310Z,11.80
2018-12-05T09:55:00.493Z,5.67
2018-12-05T09:57:29.379Z,9.43
2018-12-05T10:00:15.051Z,9.63
2018-12-05T10:02:43.950Z,10.83
2018-12-05T10:05:31.259Z,4.40
2018-12-05T10:08:00.136Z,8.83
2018-12-05T10:10:41.315Z,6.23
2018-12-05T10:13:10.186Z,12.13
2018-12-05T10:15:51.400Z,19.93
2018-12-05T10:18:20.378Z,10.50
2018-12-05T10:21:01.558Z,8.27
2018-12-05T10:23:30.743Z,9.87
2018-12-05T10:26:11.915Z,8.93
2018-12-05T10:28:40.811Z,5.63
2018-12-05T10:31:22.891Z,11.43
2018-12-05T10:33:51.839Z,7.27
2018-12-05T10:36:33.026Z,8.90
2018-12-05T10:39:04.077Z,5.93
2018-12-05T10:41:45.287Z,6.80
2018-12-05T10:44:14.157Z,7.00
2018-12-05T10:46:55.553Z,9.83
2018-12-05T10:49:25.442Z,12.10
2018-12-05T10:52:06.664Z,8.47
2018-12-05T10:54:35.643Z,5.23
2018-12-05T10:57:16.855Z,6.20
2018-12-05T10:59:45.802Z,5.23
2018-12-05T11:02:32.581Z,9.53
2018-12-05T11:05:07.234Z,11.40
2018-12-05T11:08:06.118Z,7.13
2018-12-05T11:10:40.950Z,9.97
2018-12-05T11:13:33.759Z,6.77
2018-12-05T11:18:12.332Z,5.43
2018-12-05T11:21:05.174Z,5.50
2018-12-05T11:23:39.904Z,7.67
2018-12-05T11:26:29.866Z,14.67
2018-12-05T11:28:58.776Z,6.00
2018-12-05T11:31:40.164Z,5.80
2018-12-05T11:34:09.416Z,7.77
2018-12-05T11:36:50.717Z,7.57
2018-12-05T11:39:21.527Z,14.43
2018-12-05T11:42:02.811Z,6.10
2018-12-05T11:44:31.798Z,4.80
2018-12-05T11:47:12.970Z,11.60
2018-12-05T11:49:41.870Z,6.23
2018-12-05T11:52:23.143Z,5.80
2018-12-05T11:54:52.042Z,10.93
2018-12-05T11:57:33.240Z,8.57
2018-12-05T12:00:02.162Z,8.67
2018-12-05T12:02:43.596Z,12.87
2018-12-05T12:05:12.506Z,8.37
2018-12-05T12:07:53.670Z,7.47
2018-12-05T12:10:27.238Z,5.80
2018-12-05T12:13:09.761Z,6.60
2018-12-05T12:15:39.652Z,9.40
2018-12-05T12:18:20.834Z,6.93
2018-12-05T12:20:51.650Z,4.53
2018-12-05T12:23:32.818Z,5.53
2018-12-05T12:26:01.738Z,6.40
2018-12-05T12:28:42.916Z,9.30
2018-12-05T12:31:11.931Z,13.77
2018-12-05T12:33:53.108Z,6.30
2018-12-05T12:39:03.728Z,8.30
2018-12-05T12:41:32.950Z,13.77
2018-12-05T12:44:14.129Z,17.20
2018-12-05T12:46:43.235Z,7.93
2018-12-05T12:49:24.399Z,5.97
2018-12-05T12:51:53.315Z,9.20
2018-12-05T12:54:34.459Z,7.80
2018-12-05T12:57:03.375Z,29.77
2018-12-05T12:59:44.550Z,5.70
2018-12-05T13:02:13.449Z,7.23
2018-12-05T13:04:54.622Z,6.10
2018-12-05T13:07:23.622Z,13.00
2018-12-05T13:10:05.783Z,11.17
2018-12-05T13:12:34.713Z,7.33
2018-12-05T13:15:15.886Z,5.90
2018-12-05T13:17:45.102Z,8.43
2018-12-05T13:20:26.266Z,5.97
2018-12-05T13:22:55.322Z,5.97
2018-12-05T13:25:36.510Z,10.10
2018-12-05T13:28:05.499Z,5.93
2018-12-05T13:30:46.665Z,5.93
2018-12-05T13:33:15.646Z,7.27
2018-12-05T13:35:56.818Z,9.03
2018-12-05T13:38:26.219Z,5.83
2018-12-05T13:41:07.551Z,5.70
2018-12-05T13:43:36.448Z,6.23
2018-12-05T13:46:17.631Z,5.57
2018-12-05T13:48:48.414Z,9.67
2018-12-05T13:51:29.690Z,3.97
2018-12-05T13:53:58.565Z,7.90
2018-12-05T13:56:39.751Z,7.10
2018-12-05T13:59:14.155Z,6.63
2018-12-05T14:01:56.450Z,7.07
2018-12-05T14:04:25.452Z,6.37
2018-12-05T14:07:06.618Z,7.07
2018-12-05T14:09:35.636Z,3.80
2018-12-05T14:12:22.342Z,9.03
2018-12-05T14:14:51.243Z,5.63
2018-12-05T14:17:32.422Z,7.20
2018-12-05T14:20:01.606Z,7.00
2018-12-05T14:22:42.810Z,8.53
2018-12-05T14:25:14.844Z,16.03
2018-12-05T14:27:56.310Z,22.87
2018-12-05T14:30:25.432Z,10.00
2018-12-05T14:33:06.626Z,9.53
2018-12-05T14:35:37.131Z,10.50
2018-12-05T14:38:18.299Z,7.20
2018-12-05T14:40:49.082Z,11.80
2018-12-05T14:43:30.314Z,5.60
2018-12-05T14:46:01.087Z,6.47
2018-12-05T14:48:42.260Z,7.50
2018-12-05T14:51:11.278Z,8.43
2018-12-05T14:53:52.436Z,7.47
2018-12-05T14:56:21.339Z,8.70
2018-12-05T14:59:02.506Z,11.23
2018-12-05T15:01:31.513Z,6.90
2018-12-05T15:04:12.666Z,7.97
2018-12-05T15:06:43.443Z,8.73
2018-12-05T15:09:24.639Z,6.47
2018-12-05T15:11:53.702Z,7.70
2018-12-05T15:14:34.858Z,10.03
2018-12-05T15:17:05.583Z,7.53
2018-12-05T15:19:46.734Z,12.77
2018-12-05T15:22:15.955Z,19.80
2018-12-05T15:24:57.129Z,8.13
2018-12-05T15:27:26.026Z,5.87
2018-12-05T15:30:07.346Z,9.00
2018-12-05T15:32:37.079Z,11.93
2018-12-05T15:35:18.272Z,9.53
2018-12-05T15:37:47.403Z,8.20
2018-12-05T15:40:28.721Z,11.30
2018-12-05T15:42:58.217Z,12.33
2018-12-05T15:45:39.362Z,17.60
2018-12-05T15:48:08.260Z,15.43
2018-12-05T15:50:49.506Z,15.17
2018-12-05T15:53:19.014Z,17.93
2018-12-05T15:56:00.173Z,13.70
2018-12-05T15:58:29.087Z,15.00
2018-12-05T16:01:10.822Z,20.40
2018-12-05T16:03:43.085Z,21.33
2018-12-05T16:06:23.038Z,26.27
2018-12-05T16:08:51.931Z,25.60
2018-12-05T16:11:34.119Z,24.77
2018-12-05T16:14:03.063Z,27.63
2018-12-05T16:16:44.244Z,22.85
2018-12-05T16:19:13.148Z,22.10
2018-12-05T16:21:54.367Z,16.60
2018-12-05T16:24:23.625Z,15.90
2018-12-05T16:27:04.930Z,16.82
2018-12-05T16:29:33.947Z,15.70
2018-12-05T16:32:15.219Z,15.13
2018-12-05T16:34:44.111Z,14.73
2018-12-05T16:37:32.080Z,13.57
2018-12-05T16:40:00.988Z,15.57
2018-12-05T16:42:42.220Z,18.13
2018-12-05T16:45:11.155Z,18.03
2018-12-05T16:47:52.312Z,20.07
2018-12-05T16:50:21.546Z,17.60
2018-12-05T16:53:02.771Z,16.43
2018-12-05T16:55:31.792Z,19.80
2018-12-05T16:58:13.119Z,16.77
2018-12-05T17:00:43.973Z,16.53
2018-12-05T17:03:25.160Z,17.80
2018-12-05T17:05:54.068Z,13.47
2018-12-05T17:08:35.226Z,13.90
2018-12-05T17:11:04.263Z,12.93
2018-12-05T17:13:45.431Z,12.33
2018-12-05T17:16:17.845Z,12.17
2018-12-05T17:18:57.525Z,17.00
2018-12-05T17:21:26.652Z,12.55
2018-12-05T17:24:07.854Z,9.40
2018-12-05T17:26:36.871Z,12.47
2018-12-05T17:29:18.053Z,11.18
2018-12-05T17:31:48.873Z,12.82
2018-12-05T17:34:30.074Z,11.60
2018-12-05T17:36:59.005Z,17.52
2018-12-05T17:39:40.209Z,12.83
2018-12-05T17:42:09.343Z,13.22
2018-12-05T17:44:50.546Z,12.98
2018-12-05T17:47:19.457Z,10.50
2018-12-05T17:50:00.617Z,13.25
2018-12-05T17:52:29.522Z,13.93
2018-12-05T17:55:11.031Z,17.60
2018-12-05T17:57:40.023Z,16.45
2018-12-05T18:00:27.160Z,21.50
2018-12-05T18:02:57.590Z,23.53
2018-12-05T18:05:38.792Z,25.95
2018-12-05T18:08:07.807Z,30.90
2018-12-05T18:10:48.994Z,27.00
2018-12-05T18:13:17.909Z,27.17
2018-12-05T18:15:59.086Z,29.77
2018-12-05T18:18:29.294Z,27.70
2018-12-05T18:21:10.599Z,24.67
2018-12-05T18:23:39.589Z,25.60
2018-12-05T18:26:20.758Z,30.45
2018-12-05T18:28:49.677Z,24.57
2018-12-05T18:31:31.130Z,29.82
2018-12-05T18:34:00.173Z,23.30
2018-12-05T18:36:41.398Z,20.52
2018-12-05T18:39:11.118Z,26.80
2018-12-05T18:41:52.567Z,21.17
2018-12-05T18:44:21.511Z,23.45
2018-12-05T18:47:02.697Z,24.73
2018-12-05T18:49:31.627Z,22.73
2018-12-05T18:52:13.381Z,32.17
2018-12-05T18:54:44.199Z,39.57
2018-12-05T18:57:25.394Z,30.97
2018-12-05T19:00:01.065Z,30.93
2018-12-05T19:02:37.754Z,27.47
2018-12-05T19:05:07.769Z,20.77
2018-12-05T19:07:48.925Z,22.82
2018-12-05T19:10:18.367Z,22.90
2018-12-05T19:12:59.783Z,21.20
2018-12-05T19:15:28.819Z,20.03
2018-12-05T19:18:10.363Z,24.17
2018-12-05T19:20:39.290Z,25.13
2018-12-05T19:23:20.717Z,25.80
2018-12-05T19:25:50.158Z,23.47
2018-12-05T19:28:31.488Z,22.00
2018-12-05T19:31:02.312Z,21.67
2018-12-05T19:33:43.495Z,24.52
2018-12-05T19:36:13.042Z,20.88
2018-12-05T19:38:54.281Z,21.33
2018-12-05T19:41:23.412Z,19.63
2018-12-05T19:44:04.677Z,21.80
2018-12-05T19:46:33.866Z,20.88
2018-12-05T19:49:15.290Z,22.00
2018-12-05T19:51:44.219Z,20.17
2018-12-05T19:54:25.469Z,18.45
2018-12-05T19:56:54.549Z,19.90
2018-12-05T19:59:35.727Z,18.62
2018-12-05T20:02:04.794Z,17.55
2018-12-05T20:04:46.590Z,15.47
2018-12-05T20:07:17.102Z,12.55
2018-12-05T20:09:58.366Z,18.35
2018-12-05T20:12:27.443Z,15.10
2018-12-05T20:15:09.354Z,19.60
2018-12-05T20:17:38.599Z,15.10
2018-12-05T20:20:20.894Z,16.32
2018-12-05T20:22:49.883Z,14.67
2018-12-05T20:25:31.623Z,17.07
2018-12-05T20:28:00.603Z,20.43
2018-12-05T20:30:42.279Z,26.30
2018-12-05T20:33:11.298Z,26.30
2018-12-05T20:36:30.827Z,23.50
2018-12-05T20:39:00.566Z,30.72
2018-12-05T20:41:41.863Z,20.52
2018-12-05T20:44:12.231Z,24.57
2018-12-05T20:46:53.431Z,17.95
2018-12-05T20:49:23.214Z,17.73
2018-12-05T20:52:04.413Z,19.60
2018-12-05T20:54:33.331Z,18.03
2018-12-05T20:57:14.621Z,16.45
2018-12-05T20:59:44.683Z,17.00
2018-12-05T21:02:25.909Z,16.97
2018-12-05T21:04:55.906Z,16.95
2018-12-05T21:07:37.443Z,20.12
2018-12-05T21:10:06.659Z,15.08
2018-12-05T21:12:47.853Z,19.07
2018-12-05T21:15:17.098Z,24.40
2018-12-05T21:17:58.288Z,16.23
2018-12-05T21:20:29.145Z,17.60
2018-12-05T21:23:10.352Z,14.45
2018-12-05T21:25:39.305Z,16.10
2018-12-05T21:28:20.525Z,16.30
2018-12-05T21:30:49.455Z,13.57
2018-12-05T21:33:30.700Z,16.30
2018-12-05T21:35:59.615Z,16.93
2018-12-05T21:38:40.818Z,16.40
2018-12-05T21:41:09.754Z,15.07
2018-12-05T21:43:50.979Z,15.33
2018-12-05T21:46:20.021Z,13.50
2018-12-05T21:49:01.194Z,18.93
2018-12-05T21:51:31.316Z,18.00
2018-12-05T21:54:12.483Z,19.67
2018-12-05T21:56:43.336Z,15.03
2018-12-05T21:59:27.958Z,23.93
2018-12-05T22:01:56.871Z,20.23
2018-12-05T22:04:38.041Z,21.60
2018-12-05T22:07:07.159Z,23.38
2018-12-05T22:09:48.351Z,24.00
2018-12-05T22:12:18.548Z,24.95
2018-12-05T22:14:59.691Z,23.35
2018-12-05T22:17:28.855Z,25.12
2018-12-05T22:20:10.086Z,24.87
2018-12-05T22:22:39.200Z,20.08
2018-12-05T22:25:20.494Z,20.62
2018-12-05T22:27:49.487Z,24.40
2018-12-05T22:30:30.754Z,17.87
2018-12-05T22:32:59.740Z,23.98
2018-12-05T22:35:40.910Z,21.83
2018-12-05T22:38:09.826Z,20.30
2018-12-05T22:40:50.990Z,16.62
2018-12-05T22:43:19.931Z,24.12
2018-12-05T22:46:01.129Z,24.57
2018-12-05T22:48:30.239Z,23.33
2018-12-05T22:51:11.472Z,16.87
2018-12-05T22:53:40.931Z,15.78
2018-12-05T22:56:22.090Z,17.98
2018-12-05T22:58:51.026Z,18.15
2018-12-05T23:01:32.371Z,19.40
2018-12-05T23:04:01.277Z,15.23
2018-12-05T23:06:47.339Z,18.73
2018-12-05T23:09:16.538Z,16.43
2018-12-05T23:11:57.761Z,16.10
2018-12-05T23:14:26.762Z,13.67
2018-12-05T23:17:08.954Z,14.40
2018-12-05T23:19:38.162Z,18.13
2018-12-05T23:22:19.359Z,15.43
2018-12-05T23:24:49.177Z,16.57
2018-12-05T23:27:30.553Z,16.50
2018-12-05T23:29:59.543Z,24.40
2018-12-05T23:32:40.722Z,14.80
2018-12-05T23:35:09.671Z,16.85
2018-12-05T23:37:50.849Z,17.85
2018-12-05T23:40:19.767Z,18.10
2018-12-05T23:43:01.219Z,18.70
2018-12-05T23:45:30.172Z,17.20
2018-12-05T23:48:11.379Z,20.65
2018-12-05T23:50:40.266Z,15.43
2018-12-05T23:53:21.506Z,15.13
2018-12-05T23:55:50.394Z,17.82
2018-12-05T23:58:31.597Z,21.57
